sensor_id;sensor_type;location;lat;lon;timestamp;temperature;humidity
8979;DHT22;4524;51.364;5.448;2023-11-19T00:02:08;13.30;99.90
8979;DHT22;4524;51.364;5.448;2023-11-19T00:04:37;13.30;99.90
8979;DHT22;4524;51.364;5.448;2023-11-19T00:07:06;13.30;99.90
8979;DHT22;4524;51.364;5.448;2023-11-19T00:09:34;13.40;99.90
8979;DHT22;4524;51.364;5.448;2023-11-19T00:12:04;13.40;99.90
8979;DHT22;4524;51.364;5.448;2023-11-19T00:14:34;13.40;99.90
8979;DHT22;4524;51.364;5.448;2023-11-19T00:17:02;13.40;99.90
8979;DHT22;4524;51.364;5.448;2023-11-19T00:19:31;13.40;99.90
8979;DHT22;4524;51.364;5.448;2023-11-19T00:21:59;13.40;99.90
8979;DHT22;4524;51.364;5.448;2023-11-19T00:24:30;13.40;99.90
8979;DHT22;4524;51.364;5.448;2023-11-19T00:26:58;13.40;99.90
8979;DHT22;4524;51.364;5.448;2023-11-19T00:29:26;13.40;99.90
8979;DHT22;4524;51.364;5.448;2023-11-19T00:31:55;13.40;99.90
8979;DHT22;4524;51.364;5.448;2023-11-19T00:34:24;13.40;99.90
8979;DHT22;4524;51.364;5.448;2023-11-19T00:36:52;13.40;99.90
8979;DHT22;4524;51.364;5.448;2023-11-19T00:39:22;13.40;99.90
8979;DHT22;4524;51.364;5.448;2023-11-19T00:41:49;13.40;99.90
8979;DHT22;4524;51.364;5.448;2023-11-19T00:44:17;13.40;99.90
8979;DHT22;4524;51.364;5.448;2023-11-19T00:46:46;13.40;99.90
8979;DHT22;4524;51.364;5.448;2023-11-19T00:49:15;13.40;99.90
8979;DHT22;4524;51.364;5.448;2023-11-19T00:51:44;13.40;99.90
8979;DHT22;4524;51.364;5.448;2023-11-19T00:54:12;13.40;99.90
8979;DHT22;4524;51.364;5.448;2023-11-19T00:56:40;13.40;99.90
8979;DHT22;4524;51.364;5.448;2023-11-19T00:59:08;13.40;99.90
8979;DHT22;4524;51.364;5.448;2023-11-19T01:01:36;13.40;99.90
8979;DHT22;4524;51.364;5.448;2023-11-19T01:04:04;13.40;99.90
8979;DHT22;4524;51.364;5.448;2023-11-19T01:06:34;13.40;99.90
8979;DHT22;4524;51.364;5.448;2023-11-19T01:09:02;13.40;99.90
8979;DHT22;4524;51.364;5.448;2023-11-19T01:11:30;13.40;99.90
8979;DHT22;4524;51.364;5.448;2023-11-19T01:13:58;13.40;99.90
8979;DHT22;4524;51.364;5.448;2023-11-19T01:16:26;13.40;99.90
8979;DHT22;4524;51.364;5.448;2023-11-19T01:18:54;13.40;99.90
8979;DHT22;4524;51.364;5.448;2023-11-19T01:21:42;13.40;99.90
8979;DHT22;4524;51.364;5.448;2023-11-19T01:24:10;13.30;99.90
8979;DHT22;4524;51.364;5.448;2023-11-19T01:26:40;13.40;99.90
8979;DHT22;4524;51.364;5.448;2023-11-19T01:29:12;13.40;99.90
8979;DHT22;4524;51.364;5.448;2023-11-19T01:31:41;13.40;99.90
8979;DHT22;4524;51.364;5.448;2023-11-19T01:34:09;13.40;99.90
8979;DHT22;4524;51.364;5.448;2023-11-19T01:36:38;13.40;99.90
8979;DHT22;4524;51.364;5.448;2023-11-19T01:39:08;13.40;99.90
8979;DHT22;4524;51.364;5.448;2023-11-19T01:41:36;13.40;99.90
8979;DHT22;4524;51.364;5.448;2023-11-19T01:44:06;13.40;99.90
8979;DHT22;4524;51.364;5.448;2023-11-19T01:46:34;13.40;99.90
8979;DHT22;4524;51.364;5.448;2023-11-19T01:49:02;13.40;99.90
8979;DHT22;4524;51.364;5.448;2023-11-19T01:51:32;13.40;99.90
8979;DHT22;4524;51.364;5.448;2023-11-19T01:54:01;13.40;99.90
8979;DHT22;4524;51.364;5.448;2023-11-19T01:56:31;13.30;99.90
8979;DHT22;4524;51.364;5.448;2023-11-19T01:59:00;13.30;99.90
8979;DHT22;4524;51.364;5.448;2023-11-19T02:01:29;13.30;99.90
8979;DHT22;4524;51.364;5.448;2023-11-19T02:03:59;13.30;99.90
8979;DHT22;4524;51.364;5.448;2023-11-19T02:06:28;13.40;99.90
8979;DHT22;4524;51.364;5.448;2023-11-19T02:08:56;13.30;99.90
8979;DHT22;4524;51.364;5.448;2023-11-19T02:11:24;13.30;99.90
8979;DHT22;4524;51.364;5.448;2023-11-19T02:13:57;13.10;99.90
8979;DHT22;4524;51.364;5.448;2023-11-19T02:16:25;13.00;99.90
8979;DHT22;4524;51.364;5.448;2023-11-19T02:19:11;13.00;99.90
8979;DHT22;4524;51.364;5.448;2023-11-19T02:21:40;12.90;99.90
8979;DHT22;4524;51.364;5.448;2023-11-19T02:24:10;12.90;99.90
8979;DHT22;4524;51.364;5.448;2023-11-19T02:26:42;12.80;99.90
8979;DHT22;4524;51.364;5.448;2023-11-19T02:29:13;12.80;99.90
8979;DHT22;4524;51.364;5.448;2023-11-19T02:31:41;12.70;99.90
8979;DHT22;4524;51.364;5.448;2023-11-19T02:34:10;12.70;99.90
8979;DHT22;4524;51.364;5.448;2023-11-19T02:36:39;12.60;99.90
8979;DHT22;4524;51.364;5.448;2023-11-19T02:39:08;12.60;99.90
8979;DHT22;4524;51.364;5.448;2023-11-19T02:41:39;12.50;99.90
8979;DHT22;4524;51.364;5.448;2023-11-19T02:44:07;12.40;99.90
8979;DHT22;4524;51.364;5.448;2023-11-19T02:46:36;12.40;99.90
8979;DHT22;4524;51.364;5.448;2023-11-19T02:49:04;12.30;99.90
8979;DHT22;4524;51.364;5.448;2023-11-19T02:51:33;12.30;99.90
8979;DHT22;4524;51.364;5.448;2023-11-19T02:54:02;12.30;99.90
8979;DHT22;4524;51.364;5.448;2023-11-19T02:56:30;12.20;99.90
8979;DHT22;4524;51.364;5.448;2023-11-19T02:59:02;12.20;99.90
8979;DHT22;4524;51.364;5.448;2023-11-19T03:01:36;12.20;99.90
8979;DHT22;4524;51.364;5.448;2023-11-19T03:04:10;12.20;99.90
8979;DHT22;4524;51.364;5.448;2023-11-19T03:06:39;12.20;99.90
8979;DHT22;4524;51.364;5.448;2023-11-19T03:09:07;12.10;99.90
8979;DHT22;4524;51.364;5.448;2023-11-19T03:11:37;12.10;99.90
8979;DHT22;4524;51.364;5.448;2023-11-19T03:14:05;12.10;99.90
8979;DHT22;4524;51.364;5.448;2023-11-19T03:16:34;12.10;99.90
8979;DHT22;4524;51.364;5.448;2023-11-19T03:19:03;12.10;99.90
8979;DHT22;4524;51.364;5.448;2023-11-19T03:21:33;12.10;99.90
8979;DHT22;4524;51.364;5.448;2023-11-19T03:24:01;12.00;99.90
8979;DHT22;4524;51.364;5.448;2023-11-19T03:26:29;12.10;99.90
8979;DHT22;4524;51.364;5.448;2023-11-19T03:28:57;12.00;99.90
8979;DHT22;4524;51.364;5.448;2023-11-19T03:31:25;12.00;99.90
8979;DHT22;4524;51.364;5.448;2023-11-19T03:33:53;12.10;99.90
8979;DHT22;4524;51.364;5.448;2023-11-19T03:36:31;12.10;99.90
8979;DHT22;4524;51.364;5.448;2023-11-19T03:39:00;12.10;99.90
8979;DHT22;4524;51.364;5.448;2023-11-19T03:41:49;12.20;99.90
8979;DHT22;4524;51.364;5.448;2023-11-19T03:44:17;12.20;99.90
8979;DHT22;4524;51.364;5.448;2023-11-19T03:46:45;12.10;99.90
8979;DHT22;4524;51.364;5.448;2023-11-19T03:49:14;12.10;99.90
8979;DHT22;4524;51.364;5.448;2023-11-19T03:51:44;12.10;99.90
8979;DHT22;4524;51.364;5.448;2023-11-19T03:54:12;12.10;99.90
8979;DHT22;4524;51.364;5.448;2023-11-19T03:56:40;12.00;99.90
8979;DHT22;4524;51.364;5.448;2023-11-19T03:59:07;12.00;99.90
8979;DHT22;4524;51.364;5.448;2023-11-19T04:01:36;12.00;99.90
8979;DHT22;4524;51.364;5.448;2023-11-19T04:04:05;12.00;99.90
8979;DHT22;4524;51.364;5.448;2023-11-19T04:06:33;12.00;99.90
8979;DHT22;4524;51.364;5.448;2023-11-19T04:09:03;12.00;99.90
8979;DHT22;4524;51.364;5.448;2023-11-19T04:11:31;12.10;99.90
8979;DHT22;4524;51.364;5.448;2023-11-19T04:13:59;12.10;99.90
8979;DHT22;4524;51.364;5.448;2023-11-19T04:16:27;12.20;99.90
8979;DHT22;4524;51.364;5.448;2023-11-19T04:18:56;12.20;99.90
8979;DHT22;4524;51.364;5.448;2023-11-19T04:21:25;12.10;99.90
8979;DHT22;4524;51.364;5.448;2023-11-19T04:23:53;12.10;99.90
8979;DHT22;4524;51.364;5.448;2023-11-19T04:26:22;12.10;99.90
8979;DHT22;4524;51.364;5.448;2023-11-19T04:28:50;12.20;99.90
8979;DHT22;4524;51.364;5.448;2023-11-19T04:31:19;12.30;99.90
8979;DHT22;4524;51.364;5.448;2023-11-19T04:33:47;12.30;99.90
8979;DHT22;4524;51.364;5.448;2023-11-19T04:36:18;12.20;99.90
8979;DHT22;4524;51.364;5.448;2023-11-19T04:38:46;12.20;99.90
8979;DHT22;4524;51.364;5.448;2023-11-19T04:41:14;12.20;99.90
8979;DHT22;4524;51.364;5.448;2023-11-19T04:43:44;12.30;99.90
8979;DHT22;4524;51.364;5.448;2023-11-19T04:46:12;12.20;99.90
8979;DHT22;4524;51.364;5.448;2023-11-19T04:48:40;12.20;99.90
8979;DHT22;4524;51.364;5.448;2023-11-19T04:51:08;12.10;99.90
8979;DHT22;4524;51.364;5.448;2023-11-19T04:53:37;12.10;99.90
8979;DHT22;4524;51.364;5.448;2023-11-19T04:56:08;12.10;99.90
8979;DHT22;4524;51.364;5.448;2023-11-19T04:58:36;12.00;99.90
8979;DHT22;4524;51.364;5.448;2023-11-19T05:01:24;12.00;99.90
8979;DHT22;4524;51.364;5.448;2023-11-19T05:03:52;12.00;99.90
8979;DHT22;4524;51.364;5.448;2023-11-19T05:06:21;12.00;99.90
8979;DHT22;4524;51.364;5.448;2023-11-19T05:08:49;12.00;99.90
8979;DHT22;4524;51.364;5.448;2023-11-19T05:11:16;12.00;99.90
8979;DHT22;4524;51.364;5.448;2023-11-19T05:13:46;11.90;99.90
8979;DHT22;4524;51.364;5.448;2023-11-19T05:16:14;11.90;99.90
8979;DHT22;4524;51.364;5.448;2023-11-19T05:18:44;11.80;99.90
8979;DHT22;4524;51.364;5.448;2023-11-19T05:21:12;11.90;99.90
8979;DHT22;4524;51.364;5.448;2023-11-19T05:23:40;11.80;99.90
8979;DHT22;4524;51.364;5.448;2023-11-19T05:26:08;11.70;99.90
8979;DHT22;4524;51.364;5.448;2023-11-19T05:28:38;11.70;99.90
8979;DHT22;4524;51.364;5.448;2023-11-19T05:31:06;11.80;99.90
8979;DHT22;4524;51.364;5.448;2023-11-19T05:33:34;11.80;99.90
8979;DHT22;4524;51.364;5.448;2023-11-19T05:36:05;11.70;99.90
8979;DHT22;4524;51.364;5.448;2023-11-19T05:38:35;11.70;99.90
8979;DHT22;4524;51.364;5.448;2023-11-19T05:41:03;11.70;99.90
8979;DHT22;4524;51.364;5.448;2023-11-19T05:43:32;11.70;99.90
8979;DHT22;4524;51.364;5.448;2023-11-19T05:46:00;11.70;99.90
8979;DHT22;4524;51.364;5.448;2023-11-19T05:48:29;11.60;99.90
8979;DHT22;4524;51.364;5.448;2023-11-19T05:50:57;11.60;99.90
8979;DHT22;4524;51.364;5.448;2023-11-19T05:53:26;11.60;99.90
8979;DHT22;4524;51.364;5.448;2023-11-19T05:55:54;11.60;99.90
8979;DHT22;4524;51.364;5.448;2023-11-19T05:58:24;11.50;99.90
8979;DHT22;4524;51.364;5.448;2023-11-19T06:00:53;11.50;99.90
8979;DHT22;4524;51.364;5.448;2023-11-19T06:03:21;11.50;99.90
8979;DHT22;4524;51.364;5.448;2023-11-19T06:05:50;11.50;99.90
8979;DHT22;4524;51.364;5.448;2023-11-19T06:08:18;11.40;99.90
8979;DHT22;4524;51.364;5.448;2023-11-19T06:10:48;11.40;99.90
8979;DHT22;4524;51.364;5.448;2023-11-19T06:13:18;11.40;99.90
8979;DHT22;4524;51.364;5.448;2023-11-19T06:15:49;11.40;99.90
8979;DHT22;4524;51.364;5.448;2023-11-19T06:18:18;11.40;99.90
8979;DHT22;4524;51.364;5.448;2023-11-19T06:20:47;11.30;99.90
8979;DHT22;4524;51.364;5.448;2023-11-19T06:23:16;11.40;99.90
8979;DHT22;4524;51.364;5.448;2023-11-19T06:25:44;11.30;99.90
8979;DHT22;4524;51.364;5.448;2023-11-19T06:28:13;11.30;99.90
8979;DHT22;4524;51.364;5.448;2023-11-19T06:30:41;11.20;99.90
8979;DHT22;4524;51.364;5.448;2023-11-19T06:33:13;11.20;99.90
8979;DHT22;4524;51.364;5.448;2023-11-19T06:35:41;11.20;99.90
8979;DHT22;4524;51.364;5.448;2023-11-19T06:38:10;11.20;99.90
8979;DHT22;4524;51.364;5.448;2023-11-19T06:40:38;11.20;99.90
8979;DHT22;4524;51.364;5.448;2023-11-19T06:43:06;11.20;99.90
8979;DHT22;4524;51.364;5.448;2023-11-19T06:45:37;11.30;99.90
8979;DHT22;4524;51.364;5.448;2023-11-19T06:48:05;11.30;99.90
8979;DHT22;4524;51.364;5.448;2023-11-19T06:50:34;11.20;99.90
8979;DHT22;4524;51.364;5.448;2023-11-19T06:53:21;11.20;99.90
8979;DHT22;4524;51.364;5.448;2023-11-19T06:55:49;11.20;99.90
8979;DHT22;4524;51.364;5.448;2023-11-19T06:58:17;11.10;99.90
8979;DHT22;4524;51.364;5.448;2023-11-19T07:00:46;11.20;99.90
8979;DHT22;4524;51.364;5.448;2023-11-19T07:03:16;11.10;99.90
8979;DHT22;4524;51.364;5.448;2023-11-19T07:05:44;11.10;99.90
8979;DHT22;4524;51.364;5.448;2023-11-19T07:08:12;11.10;99.90
8979;DHT22;4524;51.364;5.448;2023-11-19T07:10:40;11.00;99.90
8979;DHT22;4524;51.364;5.448;2023-11-19T07:13:08;11.10;99.90
8979;DHT22;4524;51.364;5.448;2023-11-19T07:15:37;11.10;99.90
8979;DHT22;4524;51.364;5.448;2023-11-19T07:18:06;11.10;99.90
8979;DHT22;4524;51.364;5.448;2023-11-19T07:20:35;11.10;99.90
8979;DHT22;4524;51.364;5.448;2023-11-19T07:23:04;11.10;99.90
8979;DHT22;4524;51.364;5.448;2023-11-19T07:25:33;11.10;99.90
8979;DHT22;4524;51.364;5.448;2023-11-19T07:28:02;11.10;99.90
8979;DHT22;4524;51.364;5.448;2023-11-19T07:30:31;11.20;99.90
8979;DHT22;4524;51.364;5.448;2023-11-19T07:32:59;11.20;99.90
8979;DHT22;4524;51.364;5.448;2023-11-19T07:35:29;11.20;99.90
8979;DHT22;4524;51.364;5.448;2023-11-19T07:37:57;11.20;99.90
8979;DHT22;4524;51.364;5.448;2023-11-19T07:40:25;11.20;99.90
8979;DHT22;4524;51.364;5.448;2023-11-19T07:42:54;11.30;99.90
8979;DHT22;4524;51.364;5.448;2023-11-19T07:45:22;11.30;99.90
8979;DHT22;4524;51.364;5.448;2023-11-19T07:47:50;11.30;99.90
8979;DHT22;4524;51.364;5.448;2023-11-19T07:50:18;11.30;99.90
8979;DHT22;4524;51.364;5.448;2023-11-19T07:52:48;11.30;99.90
8979;DHT22;4524;51.364;5.448;2023-11-19T07:55:16;11.30;99.90
8979;DHT22;4524;51.364;5.448;2023-11-19T07:57:44;11.30;99.90
8979;DHT22;4524;51.364;5.448;2023-11-19T08:00:13;11.40;99.90
8979;DHT22;4524;51.364;5.448;2023-11-19T08:02:41;11.40;99.90
8979;DHT22;4524;51.364;5.448;2023-11-19T08:05:10;11.40;99.90
8979;DHT22;4524;51.364;5.448;2023-11-19T08:07:38;11.50;99.90
8979;DHT22;4524;51.364;5.448;2023-11-19T08:10:08;11.50;99.90
8979;DHT22;4524;51.364;5.448;2023-11-19T08:12:37;11.60;99.90
8979;DHT22;4524;51.364;5.448;2023-11-19T08:15:06;11.60;99.90
8979;DHT22;4524;51.364;5.448;2023-11-19T08:17:34;11.60;99.90
8979;DHT22;4524;51.364;5.448;2023-11-19T08:20:03;11.60;99.90
8979;DHT22;4524;51.364;5.448;2023-11-19T08:22:37;11.60;99.90
8979;DHT22;4524;51.364;5.448;2023-11-19T08:25:05;11.70;99.90
8979;DHT22;4524;51.364;5.448;2023-11-19T08:27:56;11.80;99.90
8979;DHT22;4524;51.364;5.448;2023-11-19T08:30:24;11.90;99.90
8979;DHT22;4524;51.364;5.448;2023-11-19T08:32:52;12.00;99.90
8979;DHT22;4524;51.364;5.448;2023-11-19T08:35:20;12.00;99.90
8979;DHT22;4524;51.364;5.448;2023-11-19T08:37:48;12.10;99.90
8979;DHT22;4524;51.364;5.448;2023-11-19T08:40:16;12.10;99.90
8979;DHT22;4524;51.364;5.448;2023-11-19T08:42:44;12.20;99.90
8979;DHT22;4524;51.364;5.448;2023-11-19T08:45:14;12.10;99.90
8979;DHT22;4524;51.364;5.448;2023-11-19T08:47:42;12.10;99.90
8979;DHT22;4524;51.364;5.448;2023-11-19T08:50:12;12.20;99.90
8979;DHT22;4524;51.364;5.448;2023-11-19T08:52:40;12.20;99.90
8979;DHT22;4524;51.364;5.448;2023-11-19T08:55:26;12.20;99.90
8979;DHT22;4524;51.364;5.448;2023-11-19T08:57:54;12.20;99.90
8979;DHT22;4524;51.364;5.448;2023-11-19T09:00:24;12.20;99.90
8979;DHT22;4524;51.364;5.448;2023-11-19T09:02:52;12.30;99.90
8979;DHT22;4524;51.364;5.448;2023-11-19T09:05:20;12.30;99.90
8979;DHT22;4524;51.364;5.448;2023-11-19T09:07:48;12.40;99.90
8979;DHT22;4524;51.364;5.448;2023-11-19T09:10:17;12.40;99.90
8979;DHT22;4524;51.364;5.448;2023-11-19T09:12:45;12.60;99.90
8979;DHT22;4524;51.364;5.448;2023-11-19T09:15:13;12.60;99.90
8979;DHT22;4524;51.364;5.448;2023-11-19T09:17:42;12.60;99.90
8979;DHT22;4524;51.364;5.448;2023-11-19T09:20:11;12.60;99.90
8979;DHT22;4524;51.364;5.448;2023-11-19T09:22:42;12.80;99.90
8979;DHT22;4524;51.364;5.448;2023-11-19T09:25:10;12.80;99.90
8979;DHT22;4524;51.364;5.448;2023-11-19T09:28:03;12.90;99.90
8979;DHT22;4524;51.364;5.448;2023-11-19T09:30:31;13.00;99.90
8979;DHT22;4524;51.364;5.448;2023-11-19T09:33:02;13.20;99.90
8979;DHT22;4524;51.364;5.448;2023-11-19T09:35:31;13.20;99.90
8979;DHT22;4524;51.364;5.448;2023-11-19T09:37:59;13.20;99.90
8979;DHT22;4524;51.364;5.448;2023-11-19T09:40:29;13.20;99.90
8979;DHT22;4524;51.364;5.448;2023-11-19T09:42:58;13.30;99.90
8979;DHT22;4524;51.364;5.448;2023-11-19T09:45:28;13.30;99.90
8979;DHT22;4524;51.364;5.448;2023-11-19T09:47:57;13.40;99.90
8979;DHT22;4524;51.364;5.448;2023-11-19T09:50:29;13.40;99.90
8979;DHT22;4524;51.364;5.448;2023-11-19T09:52:57;13.50;99.90
8979;DHT22;4524;51.364;5.448;2023-11-19T09:55:25;13.50;99.90
8979;DHT22;4524;51.364;5.448;2023-11-19T09:57:53;13.40;99.90
8979;DHT22;4524;51.364;5.448;2023-11-19T10:00:21;13.40;99.90
8979;DHT22;4524;51.364;5.448;2023-11-19T10:02:50;13.70;99.90
8979;DHT22;4524;51.364;5.448;2023-11-19T10:05:20;13.70;99.90
8979;DHT22;4524;51.364;5.448;2023-11-19T10:07:51;13.60;99.90
8979;DHT22;4524;51.364;5.448;2023-11-19T10:10:19;13.60;99.90
8979;DHT22;4524;51.364;5.448;2023-11-19T10:12:47;13.60;99.90
8979;DHT22;4524;51.364;5.448;2023-11-19T10:15:20;13.80;99.90
8979;DHT22;4524;51.364;5.448;2023-11-19T10:17:49;13.70;99.90
8979;DHT22;4524;51.364;5.448;2023-11-19T10:20:17;13.70;99.90
8979;DHT22;4524;51.364;5.448;2023-11-19T10:22:45;13.60;99.90
8979;DHT22;4524;51.364;5.448;2023-11-19T10:25:24;13.60;99.90
8979;DHT22;4524;51.364;5.448;2023-11-19T10:27:53;13.60;99.90
8979;DHT22;4524;51.364;5.448;2023-11-19T10:30:22;13.80;99.90
8979;DHT22;4524;51.364;5.448;2023-11-19T10:33:03;13.90;99.90
8979;DHT22;4524;51.364;5.448;2023-11-19T10:35:32;14.00;99.90
8979;DHT22;4524;51.364;5.448;2023-11-19T10:38:01;14.10;99.90
8979;DHT22;4524;51.364;5.448;2023-11-19T10:40:40;14.20;99.90
8979;DHT22;4524;51.364;5.448;2023-11-19T10:43:08;14.20;99.90
8979;DHT22;4524;51.364;5.448;2023-11-19T10:45:37;14.20;99.90
8979;DHT22;4524;51.364;5.448;2023-11-19T10:48:06;14.10;99.90
8979;DHT22;4524;51.364;5.448;2023-11-19T10:50:35;14.20;99.90
8979;DHT22;4524;51.364;5.448;2023-11-19T10:53:04;14.30;99.90
8979;DHT22;4524;51.364;5.448;2023-11-19T10:55:34;14.10;99.90
8979;DHT22;4524;51.364;5.448;2023-11-19T10:58:04;14.10;99.90
8979;DHT22;4524;51.364;5.448;2023-11-19T11:00:38;14.20;99.90
8979;DHT22;4524;51.364;5.448;2023-11-19T11:03:11;14.30;99.90
8979;DHT22;4524;51.364;5.448;2023-11-19T11:05:43;14.20;99.90
8979;DHT22;4524;51.364;5.448;2023-11-19T11:08:11;14.30;99.90
8979;DHT22;4524;51.364;5.448;2023-11-19T11:10:43;14.20;99.90
8979;DHT22;4524;51.364;5.448;2023-11-19T11:13:15;14.10;99.90
8979;DHT22;4524;51.364;5.448;2023-11-19T11:15:44;14.10;99.90
8979;DHT22;4524;51.364;5.448;2023-11-19T11:18:13;14.10;99.90
8979;DHT22;4524;51.364;5.448;2023-11-19T11:20:44;14.20;99.90
8979;DHT22;4524;51.364;5.448;2023-11-19T11:23:47;14.20;99.90
8979;DHT22;4524;51.364;5.448;2023-11-19T11:26:38;14.20;99.90
8979;DHT22;4524;51.364;5.448;2023-11-19T11:29:23;14.20;99.90
8979;DHT22;4524;51.364;5.448;2023-11-19T11:32:00;14.00;99.90
8979;DHT22;4524;51.364;5.448;2023-11-19T11:34:41;13.90;99.90
8979;DHT22;4524;51.364;5.448;2023-11-19T11:37:18;13.80;99.90
8979;DHT22;4524;51.364;5.448;2023-11-19T11:39:47;13.70;99.90
8979;DHT22;4524;51.364;5.448;2023-11-19T11:42:35;13.60;99.90
8979;DHT22;4524;51.364;5.448;2023-11-19T11:45:06;13.50;99.90
8979;DHT22;4524;51.364;5.448;2023-11-19T11:50:55;13.50;99.90
8979;DHT22;4524;51.364;5.448;2023-11-19T11:53:25;13.50;99.90
8979;DHT22;4524;51.364;5.448;2023-11-19T11:55:57;13.70;99.90
8979;DHT22;4524;51.364;5.448;2023-11-19T11:58:31;13.80;99.90
8979;DHT22;4524;51.364;5.448;2023-11-19T12:01:03;13.80;99.90
8979;DHT22;4524;51.364;5.448;2023-11-19T12:03:33;13.80;99.90
8979;DHT22;4524;51.364;5.448;2023-11-19T12:06:02;13.70;99.90
8979;DHT22;4524;51.364;5.448;2023-11-19T12:08:30;13.60;99.90
8979;DHT22;4524;51.364;5.448;2023-11-19T12:10:58;13.60;99.90
8979;DHT22;4524;51.364;5.448;2023-11-19T12:13:47;13.60;99.90
8979;DHT22;4524;51.364;5.448;2023-11-19T12:16:17;13.80;99.90
8979;DHT22;4524;51.364;5.448;2023-11-19T12:18:45;13.90;99.90
8979;DHT22;4524;51.364;5.448;2023-11-19T12:21:28;14.00;99.90
8979;DHT22;4524;51.364;5.448;2023-11-19T12:23:58;14.00;99.90
8979;DHT22;4524;51.364;5.448;2023-11-19T12:26:33;13.90;99.90
8979;DHT22;4524;51.364;5.448;2023-11-19T12:29:02;14.00;99.90
8979;DHT22;4524;51.364;5.448;2023-11-19T12:31:36;14.00;99.90
8979;DHT22;4524;51.364;5.448;2023-11-19T12:34:06;13.90;99.90
8979;DHT22;4524;51.364;5.448;2023-11-19T12:36:39;14.00;99.90
8979;DHT22;4524;51.364;5.448;2023-11-19T12:39:08;14.00;99.90
8979;DHT22;4524;51.364;5.448;2023-11-19T12:41:49;14.00;99.90
8979;DHT22;4524;51.364;5.448;2023-11-19T12:44:18;14.00;99.90
8979;DHT22;4524;51.364;5.448;2023-11-19T12:46:59;14.10;99.90
8979;DHT22;4524;51.364;5.448;2023-11-19T12:49:27;14.00;99.90
8979;DHT22;4524;51.364;5.448;2023-11-19T12:51:55;14.00;99.90
8979;DHT22;4524;51.364;5.448;2023-11-19T12:54:33;14.00;99.90
8979;DHT22;4524;51.364;5.448;2023-11-19T12:57:01;14.10;99.90
8979;DHT22;4524;51.364;5.448;2023-11-19T12:59:29;14.00;99.90
8979;DHT22;4524;51.364;5.448;2023-11-19T13:02:00;13.90;99.90
8979;DHT22;4524;51.364;5.448;2023-11-19T13:04:30;13.80;99.90
8979;DHT22;4524;51.364;5.448;2023-11-19T13:06:58;13.70;99.90
8979;DHT22;4524;51.364;5.448;2023-11-19T13:09:29;13.70;99.90
8979;DHT22;4524;51.364;5.448;2023-11-19T13:12:17;13.70;99.90
8979;DHT22;4524;51.364;5.448;2023-11-19T13:14:45;13.70;99.90
8979;DHT22;4524;51.364;5.448;2023-11-19T13:17:15;13.80;99.90
8979;DHT22;4524;51.364;5.448;2023-11-19T13:19:43;13.70;99.90
8979;DHT22;4524;51.364;5.448;2023-11-19T13:22:11;13.80;99.90
8979;DHT22;4524;51.364;5.448;2023-11-19T13:24:40;13.90;99.90
8979;DHT22;4524;51.364;5.448;2023-11-19T13:27:09;14.00;99.90
8979;DHT22;4524;51.364;5.448;2023-11-19T13:29:37;13.90;99.90
8979;DHT22;4524;51.364;5.448;2023-11-19T13:32:06;13.90;99.90
8979;DHT22;4524;51.364;5.448;2023-11-19T13:34:36;13.80;99.90
8979;DHT22;4524;51.364;5.448;2023-11-19T13:37:04;13.80;99.90
8979;DHT22;4524;51.364;5.448;2023-11-19T13:39:32;13.70;99.90
8979;DHT22;4524;51.364;5.448;2023-11-19T13:42:00;13.60;99.90
8979;DHT22;4524;51.364;5.448;2023-11-19T13:44:31;13.50;99.90
8979;DHT22;4524;51.364;5.448;2023-11-19T13:46:59;13.40;99.90
8979;DHT22;4524;51.364;5.448;2023-11-19T13:49:27;13.40;99.90
8979;DHT22;4524;51.364;5.448;2023-11-19T13:51:56;13.50;99.90
8979;DHT22;4524;51.364;5.448;2023-11-19T13:54:24;13.60;99.90
8979;DHT22;4524;51.364;5.448;2023-11-19T13:56:55;13.60;99.90
8979;DHT22;4524;51.364;5.448;2023-11-19T13:59:25;13.70;99.90
8979;DHT22;4524;51.364;5.448;2023-11-19T14:01:52;13.60;99.90
8979;DHT22;4524;51.364;5.448;2023-11-19T14:04:20;13.60;99.90
8979;DHT22;4524;51.364;5.448;2023-11-19T14:06:49;13.60;99.90
8979;DHT22;4524;51.364;5.448;2023-11-19T14:09:18;13.50;99.90
8979;DHT22;4524;51.364;5.448;2023-11-19T14:11:46;13.50;99.90
8979;DHT22;4524;51.364;5.448;2023-11-19T14:14:15;13.50;99.90
8979;DHT22;4524;51.364;5.448;2023-11-19T14:16:43;13.40;99.90
8979;DHT22;4524;51.364;5.448;2023-11-19T14:19:11;13.40;99.90
8979;DHT22;4524;51.364;5.448;2023-11-19T14:21:40;13.40;99.90
8979;DHT22;4524;51.364;5.448;2023-11-19T14:24:08;13.40;99.90
8979;DHT22;4524;51.364;5.448;2023-11-19T14:26:38;13.40;99.90
8979;DHT22;4524;51.364;5.448;2023-11-19T14:29:06;13.30;99.90
8979;DHT22;4524;51.364;5.448;2023-11-19T14:31:34;13.30;99.90
8979;DHT22;4524;51.364;5.448;2023-11-19T14:34:02;13.40;99.90
8979;DHT22;4524;51.364;5.448;2023-11-19T14:36:30;13.30;99.90
8979;DHT22;4524;51.364;5.448;2023-11-19T14:38:58;13.30;99.90
8979;DHT22;4524;51.364;5.448;2023-11-19T14:41:26;13.30;99.90
8979;DHT22;4524;51.364;5.448;2023-11-19T14:43:55;13.30;99.90
8979;DHT22;4524;51.364;5.448;2023-11-19T14:46:23;13.30;99.90
8979;DHT22;4524;51.364;5.448;2023-11-19T14:48:51;13.30;99.90
8979;DHT22;4524;51.364;5.448;2023-11-19T14:51:39;13.20;99.90
8979;DHT22;4524;51.364;5.448;2023-11-19T14:54:07;13.30;99.90
8979;DHT22;4524;51.364;5.448;2023-11-19T14:56:35;13.40;99.90
8979;DHT22;4524;51.364;5.448;2023-11-19T14:59:06;13.30;99.90
8979;DHT22;4524;51.364;5.448;2023-11-19T15:01:34;13.30;99.90
8979;DHT22;4524;51.364;5.448;2023-11-19T15:04:03;13.30;99.90
8979;DHT22;4524;51.364;5.448;2023-11-19T15:06:32;13.30;99.90
8979;DHT22;4524;51.364;5.448;2023-11-19T15:09:01;13.30;99.90
8979;DHT22;4524;51.364;5.448;2023-11-19T15:11:29;13.20;99.90
8979;DHT22;4524;51.364;5.448;2023-11-19T15:13:57;13.20;99.90
8979;DHT22;4524;51.364;5.448;2023-11-19T15:16:27;13.20;99.90
8979;DHT22;4524;51.364;5.448;2023-11-19T15:19:00;13.10;99.90
8979;DHT22;4524;51.364;5.448;2023-11-19T15:21:30;13.20;99.90
8979;DHT22;4524;51.364;5.448;2023-11-19T15:23:58;13.20;99.90
8979;DHT22;4524;51.364;5.448;2023-11-19T15:26:26;13.20;99.90
8979;DHT22;4524;51.364;5.448;2023-11-19T15:28:54;13.20;99.90
8979;DHT22;4524;51.364;5.448;2023-11-19T15:31:24;13.20;99.90
8979;DHT22;4524;51.364;5.448;2023-11-19T15:33:53;13.20;99.90
8979;DHT22;4524;51.364;5.448;2023-11-19T15:36:22;13.10;99.90
8979;DHT22;4524;51.364;5.448;2023-11-19T15:38:50;13.10;99.90
8979;DHT22;4524;51.364;5.448;2023-11-19T15:41:19;12.90;99.90
8979;DHT22;4524;51.364;5.448;2023-11-19T15:43:47;12.90;99.90
8979;DHT22;4524;51.364;5.448;2023-11-19T15:46:15;12.90;99.90
8979;DHT22;4524;51.364;5.448;2023-11-19T15:48:43;12.80;99.90
8979;DHT22;4524;51.364;5.448;2023-11-19T15:51:12;12.80;99.90
8979;DHT22;4524;51.364;5.448;2023-11-19T15:53:40;12.90;99.90
8979;DHT22;4524;51.364;5.448;2023-11-19T15:56:10;12.90;99.90
8979;DHT22;4524;51.364;5.448;2023-11-19T15:58:38;12.80;99.90
8979;DHT22;4524;51.364;5.448;2023-11-19T16:01:06;12.70;99.90
8979;DHT22;4524;51.364;5.448;2023-11-19T16:03:35;12.70;99.90
8979;DHT22;4524;51.364;5.448;2023-11-19T16:06:07;12.60;99.90
8979;DHT22;4524;51.364;5.448;2023-11-19T16:08:38;12.60;99.90
8979;DHT22;4524;51.364;5.448;2023-11-19T16:11:06;12.60;99.90
8979;DHT22;4524;51.364;5.448;2023-11-19T16:13:36;12.50;99.90
8979;DHT22;4524;51.364;5.448;2023-11-19T16:16:05;12.50;99.90
8979;DHT22;4524;51.364;5.448;2023-11-19T16:18:37;12.50;99.90
8979;DHT22;4524;51.364;5.448;2023-11-19T16:21:05;12.40;99.90
8979;DHT22;4524;51.364;5.448;2023-11-19T16:23:33;12.40;99.90